Latest Weather Observations for Cape Naturaliste

IDW60801

Issued at 8:35 pm WST Friday 31 October 2014 (issued every 30 minutes, with the page automatically refreshed every 10 minutes)

About weather observations | Map of weather stations | Latest weather observations for WA | Other Formats
Station Details ID: 009519 Name: CAPE NATURALISTE Lat: -33.54 Lon: 115.02 Height: 109.0 m
Data from the previous 72 hours. | See also: Recent months at Cape Naturaliste
Date/Time
WST
Temp
°C
App
Temp
°C
Dew
Point
Rel
Hum
%
Delta-T
°C
Wind Press
QNH
hPa
Press
MSL
hPa
Rain
since 9 am
mm
Dir
 
Spd
km/h
Gust
km/h
Spd
kts
Gust
kts
31/08:30pm 13.3 7.5 8.0 70 2.6 SSE 28 39 15 21 1018.8 1018.8 0.0
31/08:00pm 13.7 8.4 8.3 70 2.7 SSE 26 33 14 18 1018.5 1018.5 0.0
31/07:30pm 14.1 9.2 8.5 69 2.8 S 24 32 13 17 1018.3 1018.2 0.0
31/07:00pm 14.5 10.9 8.5 67 3.0 SSW 17 20 9 11 1018.3 1018.2 0.0
31/06:30pm 15.6 11.5 8.8 64 3.5 S 20 28 11 15 1017.9 1017.8 0.0
31/06:00pm 16.9 12.1 8.8 59 4.2 SSE 24 32 13 17 1017.8 1017.7 0.0
31/05:30pm 18.8 15.4 11.1 61 4.2 S 20 26 11 14 1017.3 1017.2 0.0
31/05:00pm 18.5 11.8 11.1 62 4.0 SSW 37 50 20 27 1017.5 1017.4 0.0
31/04:30pm 18.9 13.0 11.2 61 4.2 SSW 33 44 18 24 1017.5 1017.4 0.0
31/04:00pm 19.4 13.5 10.4 56 4.9 SSW 32 44 17 24 1017.4 1017.3 0.0
31/03:30pm 19.0 13.5 10.6 58 4.6 SSW 30 41 16 22 1017.3 1017.2 0.0
31/03:00pm 19.9 14.9 10.9 56 4.9 SW 28 37 15 20 1017.5 1017.4 0.0
31/02:30pm 18.5 14.5 10.3 59 4.4 SW 22 33 12 18 1017.5 1017.4 0.0
31/02:00pm 19.1 15.1 10.4 57 4.7 SW 22 30 12 16 1017.7 1017.6 0.0
31/01:30pm 22.1 18.7 10.6 48 6.3 WSW 19 24 10 13 1017.9 1017.8 0.0
31/01:00pm 20.9 18.7 7.9 43 6.8 E 9 19 5 10 1017.7 1017.6 0.0
31/12:30pm 21.8 18.3 8.7 43 7.0 SE 17 30 9 16 1017.7 1017.6 0.0
31/12:00pm 21.3 18.0 7.9 42 7.0 ESE 15 24 8 13 1017.9 1017.8 0.0
31/11:30am 21.5 17.9 8.4 43 6.9 SSE 17 32 9 17 1018.0 1017.9 0.0
31/11:00am 20.4 16.5 7.1 42 6.8 SSE 17 28 9 15 1018.3 1018.2 0.0
31/10:30am 20.8 17.3 8.8 46 6.3 S 17 26 9 14 1018.4 1018.4 0.0
31/10:00am 19.9 15.8 7.9 46 6.2 SSE 19 30 10 16 1018.4 1018.4 0.0
31/09:30am 18.1 13.0 7.5 50 5.4 S 24 35 13 19 1018.2 1018.1 0.0
31/09:00am 16.8 11.5 6.9 52 4.9 SSE 24 41 13 22 1018.1 1018.0 1.4
31/08:30am 16.4 10.6 6.2 51 5.0 S 26 43 14 23 1018.0 1017.9 1.4
31/08:00am 16.1 11.7 7.3 56 4.4 SSE 20 30 11 16 1017.9 1017.8 1.4
31/07:30am 14.8 9.8 6.6 58 4.0 SSE 22 33 12 18 1017.5 1017.4 1.4
31/07:00am 14.9 9.4 6.0 55 4.3 SSE 24 35 13 19 1017.1 1017.0 1.4
31/06:30am 13.8 8.6 7.3 65 3.2 S 24 33 13 18 1016.7 1016.6 1.4
31/06:00am 11.9 5.8 4.6 61 3.3 S 26 35 14 19 1016.5 1016.4 1.4
31/05:30am 11.6 5.1 4.8 63 3.1 S 28 37 15 20 1016.1 1016.0 1.4
31/05:00am 11.7 5.6 4.9 63 3.1 S 26 39 14 21 1015.8 1015.7 1.4
31/04:30am 11.8 5.4 5.4 65 3.0 S 28 33 15 18 1015.3 1015.2 1.4
31/04:00am 11.8 5.6 6.1 68 2.7 S 28 39 15 21 1014.8 1014.7 1.4
31/03:30am 12.2 6.0 6.3 67 2.8 S 28 39 15 21 1014.6 1014.5 1.4
31/03:00am 13.3 5.6 7.1 66 3.0 SSW 37 48 20 26 1014.2 1014.1 1.4
31/02:30am 13.6 6.7 8.7 72 2.5 SSW 35 48 19 26 1013.9 1013.8 1.4
31/02:26am 13.6 6.7 8.7 72 2.5 SSW 35 54 19 29 1013.8 1013.7 1.4
31/02:00am 14.2 6.8 10.0 76 2.2 SSW 39 50 21 27 1013.6 1013.5 1.4
31/01:42am 13.8 7.1 9.8 77 2.1 SSW 35 54 19 29 1013.4 1013.3 1.4
31/01:30am 13.8 7.3 10.2 79 1.9 SSW 35 46 19 25 1013.3 1013.2 1.4
31/01:00am 14.5 8.4 11.6 83 1.6 SSW 35 48 19 26 1013.2 1013.1 1.4
31/12:30am 14.5 8.2 12.2 86 1.3 SSW 37 50 20 27 1013.4 1013.3 1.4
31/12:00am 14.6 8.4 12.6 88 1.1 SSW 37 52 20 28 1013.5 1013.4 1.4
 
Date/Time
WST
Temp
°C
App
Temp
°C
Dew
Point
Rel
Hum
%
Delta-T
°C
Wind Press
QNH
hPa
Press
MSL
hPa
Rain
since 9 am
mm
Dir
 
Spd
km/h
Gust
km/h
Spd
kts
Gust
kts
30/11:36pm 15.0 9.6 12.7 86 1.3 SW 33 57 18 31 1013.4 1013.3 1.2
30/11:30pm 15.3 9.6 13.0 86 1.3 SW 35 46 19 25 1013.5 1013.4 0.8
30/11:00pm 15.1 8.4 12.2 83 1.6 WSW 39 54 21 29 1013.4 1013.3 0.0
30/10:53pm 15.7 10.3 12.8 83 1.6 WSW 33 54 18 29 1013.4 1013.3 0.0
30/10:30pm 16.1 9.3 11.9 76 2.3 WSW 39 54 21 29 1013.6 1013.5 0.0
30/10:00pm 16.7 10.7 12.0 74 2.6 W 35 46 19 25 1013.7 1013.6 0.0
30/09:30pm 16.5 10.4 11.6 73 2.7 W 35 43 19 23 1013.9 1013.8 0.0
30/09:00pm 16.3 10.1 11.5 73 2.6 W 35 43 19 23 1014.0 1013.9 0.0
30/08:30pm 16.0 9.7 11.0 72 2.7 WSW 35 44 19 24 1014.1 1014.0 0.0
30/08:00pm 16.1 9.5 11.3 73 2.6 W 37 46 20 25 1014.0 1013.9 0.0
30/07:30pm 15.4 10.0 10.8 74 2.5 W 30 39 16 21 1013.9 1013.8 0.0
30/07:13pm 16.7 10.9 11.6 72 2.8 W 33 54 18 29 1013.8 1013.7 0.0
30/07:00pm 16.5 10.8 11.0 70 3.0 WSW 32 41 17 22 1013.6 1013.5 0.0
30/06:30pm 16.4 10.3 10.5 68 3.1 W 33 44 18 24 1013.4 1013.3 0.0
30/06:00pm 16.7 9.9 10.5 67 3.3 W 37 48 20 26 1013.3 1013.2 0.0
30/05:30pm 16.9 10.9 10.7 67 3.3 WSW 33 43 18 23 1013.1 1013.0 0.0
30/05:00pm 17.4 11.6 10.8 65 3.6 WSW 32 43 17 23 1013.1 1013.0 0.0
30/04:30pm 18.3 12.7 11.6 65 3.7 WSW 32 39 17 21 1013.1 1013.0 0.0
30/04:00pm 17.9 11.4 10.3 61 4.1 W 35 46 19 25 1013.0 1012.9 0.0
30/03:30pm 18.0 12.2 9.6 58 4.4 W 30 39 16 21 1013.0 1012.9 0.0
30/03:00pm 19.0 13.3 11.3 61 4.2 W 32 41 17 22 1013.1 1013.0 0.0
30/02:30pm 17.2 12.2 11.0 67 3.4 W 28 35 15 19 1013.4 1013.3 0.0
30/02:00pm 18.2 12.7 10.6 61 4.1 W 30 39 16 21 1013.5 1013.4 0.0
30/01:30pm 20.1 15.6 11.3 57 4.9 WSW 26 35 14 19 1013.5 1013.4 0.0
30/01:00pm 17.2 11.2 10.1 63 3.8 W 32 44 17 24 1013.8 1013.7 0.0
30/12:30pm 19.3 14.1 10.3 56 4.9 W 28 35 15 19 1013.6 1013.5 0.0
30/12:00pm 19.6 13.7 10.6 56 4.9 W 32 41 17 22 1013.8 1013.7 0.0
30/11:30am 18.2 14.1 10.1 59 4.3 WSW 22 30 12 16 1014.0 1013.9 0.0
30/11:00am 18.4 14.8 10.0 58 4.5 WSW 19 26 10 14 1014.1 1014.0 0.0
30/10:30am 18.8 15.6 9.8 56 4.8 WSW 17 24 9 13 1014.3 1014.2 0.0
30/10:00am 19.0 15.0 10.6 58 4.6 W 22 28 12 15 1014.7 1014.6 0.0
30/09:30am 17.8 13.8 10.4 62 4.0 WSW 22 30 12 16 1014.6 1014.5 0.0
30/09:00am 17.3 14.1 10.0 62 3.9 WSW 17 26 9 14 1014.5 1014.4 0.0
30/08:30am 17.5 15.2 10.4 63 3.8 SW 13 19 7 10 1014.5 1014.4 0.0
30/08:00am 16.8 14.8 10.0 64 3.6 SSW 11 17 6 9 1014.5 1014.4 0.0
30/07:30am 16.1 14.4 9.8 66 3.3 SSW 9 17 5 9 1014.6 1014.5 0.0
30/07:00am 15.4 13.2 9.5 68 3.1 S 11 15 6 8 1014.6 1014.5 0.0
30/06:30am 14.8 12.6 9.4 70 2.8 S 11 15 6 8 1014.7 1014.6 0.0
30/06:00am 14.0 11.4 9.4 74 2.4 SSE 13 19 7 10 1014.6 1014.5 0.0
30/05:30am 12.7 9.5 8.6 76 2.1 SSE 15 17 8 9 1014.6 1014.5 0.0
30/05:00am 12.7 9.5 8.4 75 2.1 SSE 15 19 8 10 1014.7 1014.6 0.0
30/04:30am 12.8 9.3 8.7 76 2.1 SSE 17 20 9 11 1014.6 1014.5 0.0
30/04:00am 12.2 8.6 8.3 77 1.9 S 17 20 9 11 1014.6 1014.5 0.0
30/03:30am 12.0 7.9 7.7 75 2.1 S 19 20 10 11 1014.7 1014.6 0.0
30/03:00am 12.5 8.2 8.0 74 2.2 S 20 26 11 14 1014.4 1014.3 0.0
30/02:30am 12.6 8.4 8.1 74 2.2 S 20 28 11 15 1014.5 1014.4 0.0
30/02:00am 12.9 8.0 8.4 74 2.2 S 24 30 13 16 1014.4 1014.3 0.0
30/01:30am 12.9 8.4 8.4 74 2.2 S 22 28 12 15 1014.5 1014.4 0.0
30/01:00am 13.1 7.8 8.6 74 2.3 S 26 32 14 17 1014.7 1014.6 0.0
30/12:30am 13.2 8.1 9.1 76 2.1 S 26 33 14 18 1014.7 1014.6 0.0
30/12:00am 12.9 8.5 9.0 77 2.0 S 22 30 12 16 1014.9 1014.8 0.0
 
Date/Time
WST
Temp
°C
App
Temp
°C
Dew
Point
Rel
Hum
%
Delta-T
°C
Wind Press
QNH
hPa
Press
MSL
hPa
Rain
since 9 am
mm
Dir
 
Spd
km/h
Gust
km/h
Spd
kts
Gust
kts
29/11:30pm 12.9 8.6 9.2 78 1.9 S 22 33 12 18 1015.1 1015.0 0.0
29/11:00pm 13.0 9.3 9.3 78 1.9 S 19 28 10 15 1015.2 1015.1 0.0
29/10:30pm 13.2 9.3 9.5 78 1.9 S 20 30 11 16 1015.2 1015.1 0.0
29/10:00pm 13.5 8.9 9.6 77 2.0 S 24 33 13 18 1015.2 1015.1 0.0
29/09:30pm 13.9 8.2 9.9 77 2.1 S 30 41 16 22 1015.3 1015.2 0.0
29/09:00pm 14.1 8.5 10.1 77 2.1 S 30 43 16 23 1015.1 1015.0 0.0
29/08:30pm 14.4 8.2 10.2 76 2.2 S 33 43 18 23 1015.0 1014.9 0.0
29/08:00pm 14.9 8.8 9.9 72 2.6 S 32 44 17 24 1014.5 1014.4 0.0
29/07:30pm 15.3 11.3 10.3 72 2.6 S 22 32 12 17 1014.3 1014.2 0.0
29/07:00pm 15.7 11.9 11.1 74 2.5 S 22 30 12 16 1014.1 1014.0 0.0
29/06:30pm 16.6 10.0 11.5 72 2.8 SSW 37 50 20 27 1013.6 1013.5 0.0
29/06:00pm 17.1 10.5 11.4 69 3.1 SSW 37 52 20 28 1013.3 1013.2 0.0
29/05:30pm 17.7 10.7 11.3 66 3.5 SSW 39 52 21 28 1013.4 1013.3 0.0
29/05:17pm 18.1 10.8 11.7 66 3.5 SSW 41 59 22 32 1013.4 1013.3 0.0
29/05:00pm 17.5 10.1 11.3 67 3.4 SSW 41 57 22 31 1013.3 1013.2 0.0
29/04:30pm 17.6 10.2 11.2 66 3.5 SSW 41 59 22 32 1013.4 1013.3 0.0
29/04:10pm 18.3 10.7 10.4 60 4.3 SSW 41 59 22 32 1013.4 1013.3 0.0
29/04:00pm 19.2 11.9 11.7 62 4.2 SSW 41 57 22 31 1013.6 1013.5 0.0
29/03:30pm 19.6 12.4 11.9 61 4.3 SSW 41 54 22 29 1013.6 1013.5 0.0
29/03:12pm 19.6 12.5 12.1 62 4.2 SSW 41 59 22 32 1013.6 1013.5 0.0
29/03:00pm 19.8 13.0 11.8 60 4.5 SSW 39 52 21 28 1013.8 1013.7 0.0
29/02:30pm 19.7 13.3 12.0 61 4.3 SSW 37 52 20 28 1013.8 1013.7 0.0
29/02:00pm 20.1 13.0 12.3 61 4.4 SSW 41 54 22 29 1013.9 1013.8 0.0
29/01:33pm 19.8 12.8 12.6 63 4.1 SSW 41 59 22 32 1013.9 1013.8 0.0
29/01:30pm 19.3 11.7 11.8 62 4.2 SSW 43 59 23 32 1013.9 1013.8 0.0
29/01:06pm 21.1 14.8 12.3 57 5.0 SSW 37 56 20 30 1014.2 1014.1 0.0
29/01:00pm 21.4 14.8 12.5 57 5.1 SSW 39 56 21 30 1014.2 1014.1 0.0
29/12:35pm 20.9 15.1 12.6 59 4.7 SSW 35 54 19 29 1014.3 1014.2 0.0
29/12:30pm 21.2 15.9 13.1 60 4.6 SSW 33 46 18 25 1014.4 1014.3 0.0
29/12:00pm 19.8 14.8 12.1 61 4.3 SSW 30 39 16 21 1014.6 1014.5 0.0
29/11:30am 19.9 14.5 12.2 61 4.3 SSW 32 44 17 24 1014.8 1014.7 0.0
29/11:03am 18.7 12.9 11.5 63 4.0 SSW 33 52 18 28 1015.4 1015.3 0.0
29/11:00am 19.2 13.1 11.7 62 4.2 SSW 35 46 19 25 1015.4 1015.3 0.0
29/10:30am 19.3 13.4 12.3 64 3.9 SSW 35 52 19 28 1015.8 1015.7 0.0
29/10:00am 18.0 11.4 11.3 65 3.7 SSW 37 48 20 26 1015.8 1015.7 0.0
29/09:30am 19.1 14.1 12.1 64 3.9 SSW 30 41 16 22 1016.0 1015.9 0.0
29/09:00am 18.5 13.6 11.3 63 3.9 S 28 37 15 20 1016.1 1016.0 0.0
29/08:30am 17.8 13.0 11.8 68 3.3 SSW 28 37 15 20 1015.9 1015.8 0.0
29/08:00am 16.8 13.0 12.5 76 2.4 S 24 32 13 17 1015.9 1015.8 0.0
29/07:30am 14.8 11.2 11.8 82 1.6 SSW 22 30 12 16 1015.9 1015.8 0.0
29/07:00am 13.4 10.4 10.8 84 1.4 SSW 17 20 9 11 1015.6 1015.5 0.0
29/06:30am 13.5 10.3 11.2 86 1.2 SSW 19 22 10 12 1015.5 1015.4 0.0
29/06:00am 12.5 9.8 10.4 87 1.1 S 15 24 8 13 1015.5 1015.4 0.0
29/05:30am 12.1 8.9 10.0 87 1.1 S 17 24 9 13 1015.2 1015.1 0.0
29/05:00am 11.9 8.3 9.8 87 1.1 S 19 24 10 13 1015.2 1015.1 0.0
29/04:30am 11.7 8.4 9.6 87 1.1 S 17 22 9 12 1015.2 1015.1 0.0
29/04:00am 11.8 8.1 9.5 86 1.2 SSW 19 24 10 13 1015.2 1015.1 0.0
29/03:30am 12.1 9.2 9.8 86 1.2 S 15 20 8 11 1015.2 1015.1 0.0
29/03:00am 12.1 8.5 9.8 86 1.2 S 19 26 10 14 1015.0 1014.9 0.0
29/02:30am 12.1 8.3 9.8 86 1.2 S 20 32 11 17 1015.0 1014.9 0.0
29/02:00am 12.1 8.3 9.7 85 1.2 S 20 28 11 15 1015.1 1015.0 0.0
29/01:30am 12.3 9.1 9.9 85 1.2 S 17 22 9 12 1015.4 1015.3 0.0
29/01:00am 12.4 10.7 9.8 84 1.3 S 9 13 5 7 1015.7 1015.6 0.0
29/12:30am 12.6 9.7 9.8 83 1.4 S 15 20 8 11 1015.7 1015.6 0.0
29/12:00am 13.1 10.3 10.1 82 1.6 SSE 15 22 8 12 1015.7 1015.6 0.0
 
Date/Time
WST
Temp
°C
App
Temp
°C
Dew
Point
Rel
Hum
%
Delta-T
°C
Wind Press
QNH
hPa
Press
MSL
hPa
Rain
since 9 am
mm
Dir
 
Spd
km/h
Gust
km/h
Spd
kts
Gust
kts
28/11:30pm 13.5 9.1 10.5 82 1.6 S 24 32 13 17 1015.2 1015.1 0.0
28/11:00pm 13.5 10.0 10.3 81 1.7 S 19 32 10 17 1015.2 1015.1 0.0
28/10:30pm 13.7 8.9 10.3 80 1.8 S 26 37 14 20 1014.9 1014.8 0.0
28/10:00pm 14.0 9.9 10.2 78 2.0 S 22 35 12 19 1015.3 1015.2 0.0
28/09:30pm 14.6 10.2 10.4 76 2.2 S 24 35 13 19 1015.4 1015.3 0.0
28/09:00pm 14.6 11.0 10.4 76 2.2 S 20 28 11 15 1015.7 1015.6 0.0

Other Formats:

Comma delimited format used in spreadsheet applications
http://www.bom.gov.au/fwo/IDW60801/IDW60801.94600.axf

JavaScript Object Notation format (JSON) in row-major order
http://www.bom.gov.au/fwo/IDW60801/IDW60801.94600.json